sensor_id;sensor_type;location;lat;lon;timestamp;temperature;humidity
18406;DHT22;9329;48.720;9.588;2022-12-18T00:01:38;-5.30;99.90
18406;DHT22;9329;48.720;9.588;2022-12-18T00:04:17;-5.20;99.90
18406;DHT22;9329;48.720;9.588;2022-12-18T00:06:48;-5.30;99.90
18406;DHT22;9329;48.720;9.588;2022-12-18T00:09:36;-5.50;99.90
18406;DHT22;9329;48.720;9.588;2022-12-18T00:12:26;-5.50;99.90
18406;DHT22;9329;48.720;9.588;2022-12-18T00:15:33;-5.50;99.90
18406;DHT22;9329;48.720;9.588;2022-12-18T00:18:18;-5.70;99.90
18406;DHT22;9329;48.720;9.588;2022-12-18T00:20:46;-5.70;99.90
18406;DHT22;9329;48.720;9.588;2022-12-18T00:23:13;-5.70;99.90
18406;DHT22;9329;48.720;9.588;2022-12-18T00:25:40;-6.00;99.90
18406;DHT22;9329;48.720;9.588;2022-12-18T00:28:07;-6.10;99.90
18406;DHT22;9329;48.720;9.588;2022-12-18T00:30:39;-5.90;99.90
18406;DHT22;9329;48.720;9.588;2022-12-18T00:33:13;-5.90;99.90
18406;DHT22;9329;48.720;9.588;2022-12-18T00:35:40;-5.90;99.90
18406;DHT22;9329;48.720;9.588;2022-12-18T00:38:09;-6.10;99.90
18406;DHT22;9329;48.720;9.588;2022-12-18T00:40:36;-5.90;99.90
18406;DHT22;9329;48.720;9.588;2022-12-18T00:43:03;-6.00;99.90
18406;DHT22;9329;48.720;9.588;2022-12-18T00:45:31;-6.00;99.90
18406;DHT22;9329;48.720;9.588;2022-12-18T00:47:58;-6.00;99.90
18406;DHT22;9329;48.720;9.588;2022-12-18T00:50:27;-5.90;99.90
18406;DHT22;9329;48.720;9.588;2022-12-18T00:52:54;-6.10;99.90
18406;DHT22;9329;48.720;9.588;2022-12-18T00:55:21;-6.00;99.90
18406;DHT22;9329;48.720;9.588;2022-12-18T00:57:48;-6.10;99.90
18406;DHT22;9329;48.720;9.588;2022-12-18T01:00:17;-6.30;99.90
18406;DHT22;9329;48.720;9.588;2022-12-18T01:02:44;-6.40;99.90
18406;DHT22;9329;48.720;9.588;2022-12-18T01:05:12;-6.20;99.90
18406;DHT22;9329;48.720;9.588;2022-12-18T01:07:41;-6.10;99.90
18406;DHT22;9329;48.720;9.588;2022-12-18T01:10:12;-6.20;99.90
18406;DHT22;9329;48.720;9.588;2022-12-18T01:12:39;-6.00;99.90
18406;DHT22;9329;48.720;9.588;2022-12-18T01:15:07;-6.40;99.90
18406;DHT22;9329;48.720;9.588;2022-12-18T01:17:36;-6.70;99.90
18406;DHT22;9329;48.720;9.588;2022-12-18T01:20:04;-6.50;99.90
18406;DHT22;9329;48.720;9.588;2022-12-18T01:22:32;-6.20;99.90
18406;DHT22;9329;48.720;9.588;2022-12-18T01:25:04;-6.40;99.90
18406;DHT22;9329;48.720;9.588;2022-12-18T01:27:33;-6.30;99.90
18406;DHT22;9329;48.720;9.588;2022-12-18T01:30:03;-6.60;99.90
18406;DHT22;9329;48.720;9.588;2022-12-18T01:32:31;-6.90;99.90
18406;DHT22;9329;48.720;9.588;2022-12-18T01:34:58;-6.80;99.90
18406;DHT22;9329;48.720;9.588;2022-12-18T01:37:26;-6.90;99.90
18406;DHT22;9329;48.720;9.588;2022-12-18T01:39:53;-7.00;99.90
18406;DHT22;9329;48.720;9.588;2022-12-18T01:42:22;-6.90;99.90
18406;DHT22;9329;48.720;9.588;2022-12-18T01:44:56;-6.80;99.90
18406;DHT22;9329;48.720;9.588;2022-12-18T01:47:26;-6.50;99.90
18406;DHT22;9329;48.720;9.588;2022-12-18T01:49:55;-6.30;99.90
18406;DHT22;9329;48.720;9.588;2022-12-18T01:52:24;-6.20;99.90
18406;DHT22;9329;48.720;9.588;2022-12-18T01:54:53;-6.80;99.90
18406;DHT22;9329;48.720;9.588;2022-12-18T01:57:23;-6.80;99.90
18406;DHT22;9329;48.720;9.588;2022-12-18T01:59:53;-6.80;99.90
18406;DHT22;9329;48.720;9.588;2022-12-18T02:02:23;-6.70;99.90
18406;DHT22;9329;48.720;9.588;2022-12-18T02:04:51;-6.90;99.90
18406;DHT22;9329;48.720;9.588;2022-12-18T02:07:24;-6.70;99.90
18406;DHT22;9329;48.720;9.588;2022-12-18T02:09:59;-6.50;99.90
18406;DHT22;9329;48.720;9.588;2022-12-18T02:12:33;-7.00;99.90
18406;DHT22;9329;48.720;9.588;2022-12-18T02:15:06;-7.10;99.90
18406;DHT22;9329;48.720;9.588;2022-12-18T02:17:40;-7.20;99.90
18406;DHT22;9329;48.720;9.588;2022-12-18T02:20:16;-6.90;99.90
18406;DHT22;9329;48.720;9.588;2022-12-18T02:22:55;-7.00;99.90
18406;DHT22;9329;48.720;9.588;2022-12-18T02:28:30;-7.20;99.90
18406;DHT22;9329;48.720;9.588;2022-12-18T02:31:03;-7.20;99.90
18406;DHT22;9329;48.720;9.588;2022-12-18T02:33:32;-6.90;99.90
18406;DHT22;9329;48.720;9.588;2022-12-18T02:36:01;-6.70;99.90
18406;DHT22;9329;48.720;9.588;2022-12-18T02:38:32;-6.70;99.90
18406;DHT22;9329;48.720;9.588;2022-12-18T02:41:07;-7.00;99.90
18406;DHT22;9329;48.720;9.588;2022-12-18T02:43:40;-7.10;99.90
18406;DHT22;9329;48.720;9.588;2022-12-18T02:46:27;-7.10;99.90
18406;DHT22;9329;48.720;9.588;2022-12-18T02:49:01;-6.80;99.90
18406;DHT22;9329;48.720;9.588;2022-12-18T02:51:33;-6.80;99.90
18406;DHT22;9329;48.720;9.588;2022-12-18T02:54:08;-7.00;99.90
18406;DHT22;9329;48.720;9.588;2022-12-18T02:56:45;-7.10;99.90
18406;DHT22;9329;48.720;9.588;2022-12-18T02:59:21;-7.30;99.90
18406;DHT22;9329;48.720;9.588;2022-12-18T03:01:58;-7.00;99.90
18406;DHT22;9329;48.720;9.588;2022-12-18T03:04:30;-7.00;99.90
18406;DHT22;9329;48.720;9.588;2022-12-18T03:07:05;-7.10;99.90
18406;DHT22;9329;48.720;9.588;2022-12-18T03:09:38;-6.90;99.90
18406;DHT22;9329;48.720;9.588;2022-12-18T03:12:09;-6.80;99.90
18406;DHT22;9329;48.720;9.588;2022-12-18T03:14:55;-7.10;99.90
18406;DHT22;9329;48.720;9.588;2022-12-18T03:17:27;-6.90;99.90
18406;DHT22;9329;48.720;9.588;2022-12-18T03:19:58;-6.80;99.90
18406;DHT22;9329;48.720;9.588;2022-12-18T03:22:28;-6.90;99.90
18406;DHT22;9329;48.720;9.588;2022-12-18T03:24:57;-6.90;99.90
18406;DHT22;9329;48.720;9.588;2022-12-18T03:27:27;-6.90;99.90
18406;DHT22;9329;48.720;9.588;2022-12-18T03:30:02;-6.50;99.90
18406;DHT22;9329;48.720;9.588;2022-12-18T03:32:38;-6.70;99.90
18406;DHT22;9329;48.720;9.588;2022-12-18T03:35:08;-6.90;99.90
18406;DHT22;9329;48.720;9.588;2022-12-18T03:37:37;-7.00;99.90
18406;DHT22;9329;48.720;9.588;2022-12-18T03:40:06;-6.90;99.90
18406;DHT22;9329;48.720;9.588;2022-12-18T03:42:42;-6.80;99.90
18406;DHT22;9329;48.720;9.588;2022-12-18T03:45:16;-6.40;99.90
18406;DHT22;9329;48.720;9.588;2022-12-18T03:47:54;-6.60;99.90
18406;DHT22;9329;48.720;9.588;2022-12-18T03:50:29;-6.70;99.90
18406;DHT22;9329;48.720;9.588;2022-12-18T03:53:06;-6.60;99.90
18406;DHT22;9329;48.720;9.588;2022-12-18T03:55:36;-6.50;99.90
18406;DHT22;9329;48.720;9.588;2022-12-18T03:58:06;-6.80;99.90
18406;DHT22;9329;48.720;9.588;2022-12-18T04:00:57;-7.00;99.90
18406;DHT22;9329;48.720;9.588;2022-12-18T04:03:26;-6.90;99.90
18406;DHT22;9329;48.720;9.588;2022-12-18T04:05:57;-6.80;99.90
18406;DHT22;9329;48.720;9.588;2022-12-18T04:08:27;-6.90;99.90
18406;DHT22;9329;48.720;9.588;2022-12-18T04:11:05;-7.10;99.90
18406;DHT22;9329;48.720;9.588;2022-12-18T04:13:35;-6.80;99.90
18406;DHT22;9329;48.720;9.588;2022-12-18T04:16:07;-6.90;99.90
18406;DHT22;9329;48.720;9.588;2022-12-18T04:18:39;-6.90;99.90
18406;DHT22;9329;48.720;9.588;2022-12-18T04:21:06;-7.10;99.90
18406;DHT22;9329;48.720;9.588;2022-12-18T04:23:33;-7.30;99.90
18406;DHT22;9329;48.720;9.588;2022-12-18T04:26:01;-7.20;99.90
18406;DHT22;9329;48.720;9.588;2022-12-18T04:28:45;-7.40;99.90
18406;DHT22;9329;48.720;9.588;2022-12-18T04:31:18;-7.40;99.90
18406;DHT22;9329;48.720;9.588;2022-12-18T04:33:46;-7.40;99.90
18406;DHT22;9329;48.720;9.588;2022-12-18T04:36:14;-7.60;99.90
18406;DHT22;9329;48.720;9.588;2022-12-18T04:38:41;-7.40;99.90
18406;DHT22;9329;48.720;9.588;2022-12-18T04:41:12;-7.20;99.90
18406;DHT22;9329;48.720;9.588;2022-12-18T04:43:40;-7.40;99.90
18406;DHT22;9329;48.720;9.588;2022-12-18T04:46:08;-7.40;99.90
18406;DHT22;9329;48.720;9.588;2022-12-18T04:48:37;-7.40;99.90
18406;DHT22;9329;48.720;9.588;2022-12-18T04:51:04;-7.50;99.90
18406;DHT22;9329;48.720;9.588;2022-12-18T04:53:32;-7.40;99.90
18406;DHT22;9329;48.720;9.588;2022-12-18T04:56:03;-7.30;99.90
18406;DHT22;9329;48.720;9.588;2022-12-18T04:58:31;-7.00;99.90
18406;DHT22;9329;48.720;9.588;2022-12-18T05:00:58;-7.30;99.90
18406;DHT22;9329;48.720;9.588;2022-12-18T05:03:24;-7.50;99.90
18406;DHT22;9329;48.720;9.588;2022-12-18T05:05:53;-7.70;99.90
18406;DHT22;9329;48.720;9.588;2022-12-18T05:08:20;-7.50;99.90
18406;DHT22;9329;48.720;9.588;2022-12-18T05:10:47;-7.50;99.90
18406;DHT22;9329;48.720;9.588;2022-12-18T05:13:14;-7.40;99.90
18406;DHT22;9329;48.720;9.588;2022-12-18T05:15:41;-7.50;99.90
18406;DHT22;9329;48.720;9.588;2022-12-18T05:18:08;-7.70;99.90
18406;DHT22;9329;48.720;9.588;2022-12-18T05:20:35;-7.50;99.90
18406;DHT22;9329;48.720;9.588;2022-12-18T05:23:03;-7.60;99.90
18406;DHT22;9329;48.720;9.588;2022-12-18T05:25:30;-7.40;99.90
18406;DHT22;9329;48.720;9.588;2022-12-18T05:27:57;-7.30;99.90
18406;DHT22;9329;48.720;9.588;2022-12-18T05:30:24;-7.30;99.90
18406;DHT22;9329;48.720;9.588;2022-12-18T05:32:52;-7.50;99.90
18406;DHT22;9329;48.720;9.588;2022-12-18T05:35:18;-7.60;99.90
18406;DHT22;9329;48.720;9.588;2022-12-18T05:37:45;-7.50;99.90
18406;DHT22;9329;48.720;9.588;2022-12-18T05:40:14;-7.90;99.90
18406;DHT22;9329;48.720;9.588;2022-12-18T05:42:41;-8.00;99.90
18406;DHT22;9329;48.720;9.588;2022-12-18T05:45:08;-7.50;99.90
18406;DHT22;9329;48.720;9.588;2022-12-18T05:47:35;-7.70;99.90
18406;DHT22;9329;48.720;9.588;2022-12-18T05:50:03;-7.60;99.90
18406;DHT22;9329;48.720;9.588;2022-12-18T05:52:30;-7.90;99.90
18406;DHT22;9329;48.720;9.588;2022-12-18T05:54:58;-7.40;99.90
18406;DHT22;9329;48.720;9.588;2022-12-18T05:57:27;-7.60;99.90
18406;DHT22;9329;48.720;9.588;2022-12-18T05:59:54;-7.80;99.90
18406;DHT22;9329;48.720;9.588;2022-12-18T06:02:21;-7.80;99.90
18406;DHT22;9329;48.720;9.588;2022-12-18T06:04:48;-8.00;99.90
18406;DHT22;9329;48.720;9.588;2022-12-18T06:07:15;-7.80;99.90
18406;DHT22;9329;48.720;9.588;2022-12-18T06:09:43;-7.60;99.90
18406;DHT22;9329;48.720;9.588;2022-12-18T06:12:10;-7.70;99.90
18406;DHT22;9329;48.720;9.588;2022-12-18T06:14:38;-7.90;99.90
18406;DHT22;9329;48.720;9.588;2022-12-18T06:17:05;-8.00;99.90
18406;DHT22;9329;48.720;9.588;2022-12-18T06:19:32;-8.00;99.90
18406;DHT22;9329;48.720;9.588;2022-12-18T06:21:59;-7.60;99.90
18406;DHT22;9329;48.720;9.588;2022-12-18T06:24:26;-7.60;99.90
18406;DHT22;9329;48.720;9.588;2022-12-18T06:26:53;-7.60;99.90
18406;DHT22;9329;48.720;9.588;2022-12-18T06:29:20;-7.60;99.90
18406;DHT22;9329;48.720;9.588;2022-12-18T06:31:48;-7.60;99.90
18406;DHT22;9329;48.720;9.588;2022-12-18T06:34:15;-7.70;99.90
18406;DHT22;9329;48.720;9.588;2022-12-18T06:36:42;-8.10;99.90
18406;DHT22;9329;48.720;9.588;2022-12-18T06:39:09;-8.00;99.90
18406;DHT22;9329;48.720;9.588;2022-12-18T06:41:36;-7.70;99.90
18406;DHT22;9329;48.720;9.588;2022-12-18T06:44:03;-8.10;99.90
18406;DHT22;9329;48.720;9.588;2022-12-18T06:46:31;-7.90;99.90
18406;DHT22;9329;48.720;9.588;2022-12-18T06:49:00;-7.90;99.90
18406;DHT22;9329;48.720;9.588;2022-12-18T06:51:27;-7.70;99.90
18406;DHT22;9329;48.720;9.588;2022-12-18T06:53:54;-7.70;99.90
18406;DHT22;9329;48.720;9.588;2022-12-18T06:56:21;-7.60;99.90
18406;DHT22;9329;48.720;9.588;2022-12-18T06:58:48;-7.80;99.90
18406;DHT22;9329;48.720;9.588;2022-12-18T07:01:18;-7.60;99.90
18406;DHT22;9329;48.720;9.588;2022-12-18T07:03:45;-7.60;99.90
18406;DHT22;9329;48.720;9.588;2022-12-18T07:06:16;-7.30;99.90
18406;DHT22;9329;48.720;9.588;2022-12-18T07:08:43;-7.60;99.90
18406;DHT22;9329;48.720;9.588;2022-12-18T07:11:11;-7.60;99.90
18406;DHT22;9329;48.720;9.588;2022-12-18T07:13:38;-7.10;99.90
18406;DHT22;9329;48.720;9.588;2022-12-18T07:16:07;-7.00;99.90
18406;DHT22;9329;48.720;9.588;2022-12-18T07:18:35;-6.90;99.90
18406;DHT22;9329;48.720;9.588;2022-12-18T07:21:05;-6.70;99.90
18406;DHT22;9329;48.720;9.588;2022-12-18T07:23:35;-6.90;99.90
18406;DHT22;9329;48.720;9.588;2022-12-18T07:26:02;-7.20;99.90
18406;DHT22;9329;48.720;9.588;2022-12-18T07:28:30;-7.20;99.90
18406;DHT22;9329;48.720;9.588;2022-12-18T07:30:58;-7.30;99.90
18406;DHT22;9329;48.720;9.588;2022-12-18T07:33:25;-7.10;99.90
18406;DHT22;9329;48.720;9.588;2022-12-18T07:35:52;-7.30;99.90
18406;DHT22;9329;48.720;9.588;2022-12-18T07:38:20;-7.30;99.90
18406;DHT22;9329;48.720;9.588;2022-12-18T07:40:48;-7.10;99.90
18406;DHT22;9329;48.720;9.588;2022-12-18T07:43:15;-6.90;99.90
18406;DHT22;9329;48.720;9.588;2022-12-18T07:45:44;-6.80;99.90
18406;DHT22;9329;48.720;9.588;2022-12-18T07:48:11;-6.50;99.90
18406;DHT22;9329;48.720;9.588;2022-12-18T07:50:38;-6.20;99.90
18406;DHT22;9329;48.720;9.588;2022-12-18T07:53:05;-6.10;99.90
18406;DHT22;9329;48.720;9.588;2022-12-18T07:55:32;-6.00;99.90
18406;DHT22;9329;48.720;9.588;2022-12-18T07:58:02;-6.10;99.90
18406;DHT22;9329;48.720;9.588;2022-12-18T08:00:42;-5.90;99.90
18406;DHT22;9329;48.720;9.588;2022-12-18T08:03:10;-6.10;99.90
18406;DHT22;9329;48.720;9.588;2022-12-18T08:05:41;-6.00;99.90
18406;DHT22;9329;48.720;9.588;2022-12-18T08:08:08;-5.80;99.90
18406;DHT22;9329;48.720;9.588;2022-12-18T08:10:35;-5.70;99.90
18406;DHT22;9329;48.720;9.588;2022-12-18T08:13:04;-5.60;99.90
18406;DHT22;9329;48.720;9.588;2022-12-18T08:15:31;-5.50;99.90
18406;DHT22;9329;48.720;9.588;2022-12-18T08:17:58;-5.50;99.90
18406;DHT22;9329;48.720;9.588;2022-12-18T08:20:25;-5.20;99.90
18406;DHT22;9329;48.720;9.588;2022-12-18T08:22:52;-5.00;99.90
18406;DHT22;9329;48.720;9.588;2022-12-18T08:25:19;-4.80;99.90
18406;DHT22;9329;48.720;9.588;2022-12-18T08:27:46;-4.70;99.90
18406;DHT22;9329;48.720;9.588;2022-12-18T08:30:15;-4.60;99.90
18406;DHT22;9329;48.720;9.588;2022-12-18T08:32:42;-4.50;99.90
18406;DHT22;9329;48.720;9.588;2022-12-18T08:35:09;-4.20;99.90
18406;DHT22;9329;48.720;9.588;2022-12-18T08:37:37;-4.20;99.90
18406;DHT22;9329;48.720;9.588;2022-12-18T08:40:06;-3.90;99.90
18406;DHT22;9329;48.720;9.588;2022-12-18T08:42:33;-3.80;99.90
18406;DHT22;9329;48.720;9.588;2022-12-18T08:45:19;-3.70;99.90
18406;DHT22;9329;48.720;9.588;2022-12-18T08:47:46;-3.40;99.90
18406;DHT22;9329;48.720;9.588;2022-12-18T08:50:13;-3.50;99.90
18406;DHT22;9329;48.720;9.588;2022-12-18T08:52:40;-3.40;99.90
18406;DHT22;9329;48.720;9.588;2022-12-18T08:55:08;-3.20;99.90
18406;DHT22;9329;48.720;9.588;2022-12-18T08:57:35;-3.20;99.90
18406;DHT22;9329;48.720;9.588;2022-12-18T09:00:03;-3.00;99.90
18406;DHT22;9329;48.720;9.588;2022-12-18T09:02:32;-2.90;99.90
18406;DHT22;9329;48.720;9.588;2022-12-18T09:04:59;-2.80;99.90
18406;DHT22;9329;48.720;9.588;2022-12-18T09:07:26;-2.70;99.90
18406;DHT22;9329;48.720;9.588;2022-12-18T09:09:53;-2.60;99.90
18406;DHT22;9329;48.720;9.588;2022-12-18T09:12:20;-2.30;99.90
18406;DHT22;9329;48.720;9.588;2022-12-18T09:14:47;-2.30;99.90
18406;DHT22;9329;48.720;9.588;2022-12-18T09:17:14;-2.60;99.90
18406;DHT22;9329;48.720;9.588;2022-12-18T09:19:43;-2.50;99.90
18406;DHT22;9329;48.720;9.588;2022-12-18T09:22:10;-2.20;99.90
18406;DHT22;9329;48.720;9.588;2022-12-18T09:24:37;-2.20;99.90
18406;DHT22;9329;48.720;9.588;2022-12-18T09:27:04;-2.00;99.90
18406;DHT22;9329;48.720;9.588;2022-12-18T09:29:32;-2.10;99.90
18406;DHT22;9329;48.720;9.588;2022-12-18T09:31:59;-1.90;99.90
18406;DHT22;9329;48.720;9.588;2022-12-18T09:34:26;-1.80;99.90
18406;DHT22;9329;48.720;9.588;2022-12-18T09:36:55;-1.60;99.90
18406;DHT22;9329;48.720;9.588;2022-12-18T09:39:22;-1.80;99.90
18406;DHT22;9329;48.720;9.588;2022-12-18T09:41:52;-1.70;99.90
18406;DHT22;9329;48.720;9.588;2022-12-18T09:44:25;-1.50;99.90
18406;DHT22;9329;48.720;9.588;2022-12-18T09:47:07;-1.20;99.90
18406;DHT22;9329;48.720;9.588;2022-12-18T09:49:39;-1.20;99.90
18406;DHT22;9329;48.720;9.588;2022-12-18T09:52:14;-1.00;99.90
18406;DHT22;9329;48.720;9.588;2022-12-18T09:54:44;-1.10;99.90
18406;DHT22;9329;48.720;9.588;2022-12-18T09:57:14;-1.10;99.90
18406;DHT22;9329;48.720;9.588;2022-12-18T09:59:46;-0.70;99.90
18406;DHT22;9329;48.720;9.588;2022-12-18T10:02:17;-0.70;99.90
18406;DHT22;9329;48.720;9.588;2022-12-18T10:04:54;-0.80;99.90
18406;DHT22;9329;48.720;9.588;2022-12-18T10:07:30;-0.70;99.90
18406;DHT22;9329;48.720;9.588;2022-12-18T10:10:06;-0.50;99.90
18406;DHT22;9329;48.720;9.588;2022-12-18T10:12:40;-0.40;99.90
18406;DHT22;9329;48.720;9.588;2022-12-18T10:15:15;-0.30;99.90
18406;DHT22;9329;48.720;9.588;2022-12-18T10:17:49;0.10;99.90
18406;DHT22;9329;48.720;9.588;2022-12-18T10:20:22;0.10;99.90
18406;DHT22;9329;48.720;9.588;2022-12-18T10:22:59;0.10;99.90
18406;DHT22;9329;48.720;9.588;2022-12-18T10:25:31;0.30;99.90
18406;DHT22;9329;48.720;9.588;2022-12-18T10:28:08;0.50;99.90
18406;DHT22;9329;48.720;9.588;2022-12-18T10:30:42;0.60;99.90
18406;DHT22;9329;48.720;9.588;2022-12-18T10:33:20;0.70;99.90
18406;DHT22;9329;48.720;9.588;2022-12-18T10:35:50;0.70;99.90
18406;DHT22;9329;48.720;9.588;2022-12-18T10:38:25;0.80;99.90
18406;DHT22;9329;48.720;9.588;2022-12-18T10:40:54;0.70;99.90
18406;DHT22;9329;48.720;9.588;2022-12-18T10:43:24;0.90;99.90
18406;DHT22;9329;48.720;9.588;2022-12-18T10:46:16;1.10;99.90
18406;DHT22;9329;48.720;9.588;2022-12-18T10:48:52;1.30;99.90
18406;DHT22;9329;48.720;9.588;2022-12-18T10:51:23;1.30;99.90
18406;DHT22;9329;48.720;9.588;2022-12-18T10:54:00;1.10;99.90
18406;DHT22;9329;48.720;9.588;2022-12-18T10:56:29;1.30;99.90
18406;DHT22;9329;48.720;9.588;2022-12-18T10:59:00;1.30;99.90
18406;DHT22;9329;48.720;9.588;2022-12-18T11:01:28;1.60;99.90
18406;DHT22;9329;48.720;9.588;2022-12-18T11:04:07;1.50;99.90
18406;DHT22;9329;48.720;9.588;2022-12-18T11:06:58;1.20;99.90
18406;DHT22;9329;48.720;9.588;2022-12-18T11:09:31;1.40;99.90
18406;DHT22;9329;48.720;9.588;2022-12-18T11:12:02;1.60;99.90
18406;DHT22;9329;48.720;9.588;2022-12-18T11:14:32;1.70;99.90
18406;DHT22;9329;48.720;9.588;2022-12-18T11:17:01;1.80;99.90
18406;DHT22;9329;48.720;9.588;2022-12-18T11:19:34;2.20;99.90
18406;DHT22;9329;48.720;9.588;2022-12-18T11:22:03;2.00;99.90
18406;DHT22;9329;48.720;9.588;2022-12-18T11:24:56;2.30;99.90
18406;DHT22;9329;48.720;9.588;2022-12-18T11:27:28;2.30;99.90
18406;DHT22;9329;48.720;9.588;2022-12-18T11:30:25;2.30;99.90
18406;DHT22;9329;48.720;9.588;2022-12-18T11:32:58;2.30;99.90
18406;DHT22;9329;48.720;9.588;2022-12-18T11:35:38;2.10;99.90
18406;DHT22;9329;48.720;9.588;2022-12-18T11:38:16;2.30;99.90
18406;DHT22;9329;48.720;9.588;2022-12-18T11:40:50;2.40;99.90
18406;DHT22;9329;48.720;9.588;2022-12-18T11:43:25;2.40;99.90
18406;DHT22;9329;48.720;9.588;2022-12-18T11:45:58;2.50;99.90
18406;DHT22;9329;48.720;9.588;2022-12-18T11:48:28;2.70;99.90
18406;DHT22;9329;48.720;9.588;2022-12-18T11:50:58;2.80;99.90
18406;DHT22;9329;48.720;9.588;2022-12-18T11:53:28;3.10;99.90
18406;DHT22;9329;48.720;9.588;2022-12-18T11:56:32;3.40;99.90
18406;DHT22;9329;48.720;9.588;2022-12-18T11:59:09;3.00;99.90
18406;DHT22;9329;48.720;9.588;2022-12-18T12:01:50;3.00;99.90
18406;DHT22;9329;48.720;9.588;2022-12-18T12:04:53;3.00;99.90
18406;DHT22;9329;48.720;9.588;2022-12-18T12:07:41;2.90;99.90
18406;DHT22;9329;48.720;9.588;2022-12-18T12:22:39;3.90;99.90
18406;DHT22;9329;48.720;9.588;2022-12-18T12:40:38;4.60;99.90
18406;DHT22;9329;48.720;9.588;2022-12-18T12:43:19;4.60;99.90
18406;DHT22;9329;48.720;9.588;2022-12-18T12:45:49;4.20;99.90
18406;DHT22;9329;48.720;9.588;2022-12-18T12:48:25;4.30;99.90
18406;DHT22;9329;48.720;9.588;2022-12-18T12:50:55;4.70;99.90
18406;DHT22;9329;48.720;9.588;2022-12-18T12:53:27;4.70;99.90
18406;DHT22;9329;48.720;9.588;2022-12-18T12:55:57;5.10;99.90
18406;DHT22;9329;48.720;9.588;2022-12-18T12:58:31;4.80;99.90
18406;DHT22;9329;48.720;9.588;2022-12-18T13:01:08;4.80;99.90
18406;DHT22;9329;48.720;9.588;2022-12-18T13:03:45;3.80;99.90
18406;DHT22;9329;48.720;9.588;2022-12-18T13:06:27;3.80;99.90
18406;DHT22;9329;48.720;9.588;2022-12-18T13:08:57;3.90;99.90
18406;DHT22;9329;48.720;9.588;2022-12-18T13:11:39;3.80;99.90
18406;DHT22;9329;48.720;9.588;2022-12-18T13:14:30;3.80;99.90
18406;DHT22;9329;48.720;9.588;2022-12-18T13:17:27;3.50;99.90
18406;DHT22;9329;48.720;9.588;2022-12-18T13:20:10;3.70;99.90
18406;DHT22;9329;48.720;9.588;2022-12-18T13:22:40;3.30;99.90
18406;DHT22;9329;48.720;9.588;2022-12-18T13:25:34;3.50;99.90
18406;DHT22;9329;48.720;9.588;2022-12-18T13:28:09;3.80;99.90
18406;DHT22;9329;48.720;9.588;2022-12-18T13:30:44;3.50;99.90
18406;DHT22;9329;48.720;9.588;2022-12-18T13:33:38;3.20;99.90
18406;DHT22;9329;48.720;9.588;2022-12-18T13:39:31;3.00;99.90
18406;DHT22;9329;48.720;9.588;2022-12-18T13:45:42;2.80;99.90
18406;DHT22;9329;48.720;9.588;2022-12-18T13:48:22;2.50;99.90
18406;DHT22;9329;48.720;9.588;2022-12-18T13:51:00;2.50;99.90
18406;DHT22;9329;48.720;9.588;2022-12-18T13:53:34;2.50;99.90
18406;DHT22;9329;48.720;9.588;2022-12-18T13:56:03;2.60;99.90
18406;DHT22;9329;48.720;9.588;2022-12-18T13:58:31;2.80;99.90
18406;DHT22;9329;48.720;9.588;2022-12-18T14:01:00;2.10;99.90
18406;DHT22;9329;48.720;9.588;2022-12-18T14:03:31;2.20;99.90
18406;DHT22;9329;48.720;9.588;2022-12-18T14:06:04;2.10;99.90
18406;DHT22;9329;48.720;9.588;2022-12-18T14:08:36;2.00;99.90
18406;DHT22;9329;48.720;9.588;2022-12-18T14:11:06;2.20;99.90
18406;DHT22;9329;48.720;9.588;2022-12-18T14:13:37;2.30;99.90
18406;DHT22;9329;48.720;9.588;2022-12-18T14:16:11;2.50;99.90
18406;DHT22;9329;48.720;9.588;2022-12-18T14:18:44;2.00;99.90
18406;DHT22;9329;48.720;9.588;2022-12-18T14:21:19;1.90;99.90
18406;DHT22;9329;48.720;9.588;2022-12-18T14:23:48;1.80;99.90
18406;DHT22;9329;48.720;9.588;2022-12-18T14:26:26;1.50;99.90
18406;DHT22;9329;48.720;9.588;2022-12-18T14:28:55;1.50;99.90
18406;DHT22;9329;48.720;9.588;2022-12-18T14:31:28;1.40;99.90
18406;DHT22;9329;48.720;9.588;2022-12-18T14:33:56;1.30;99.90
18406;DHT22;9329;48.720;9.588;2022-12-18T14:36:28;1.00;99.90
18406;DHT22;9329;48.720;9.588;2022-12-18T14:38:57;0.80;99.90
18406;DHT22;9329;48.720;9.588;2022-12-18T14:41:25;1.20;99.90
18406;DHT22;9329;48.720;9.588;2022-12-18T14:43:54;1.10;99.90
18406;DHT22;9329;48.720;9.588;2022-12-18T14:46:32;0.80;99.90
18406;DHT22;9329;48.720;9.588;2022-12-18T14:49:02;0.50;99.90
18406;DHT22;9329;48.720;9.588;2022-12-18T14:51:31;0.40;99.90
18406;DHT22;9329;48.720;9.588;2022-12-18T14:54:01;0.60;99.90
18406;DHT22;9329;48.720;9.588;2022-12-18T14:56:30;0.60;99.90
18406;DHT22;9329;48.720;9.588;2022-12-18T14:58:59;0.50;99.90
18406;DHT22;9329;48.720;9.588;2022-12-18T15:01:30;0.30;99.90
18406;DHT22;9329;48.720;9.588;2022-12-18T15:03:59;0.50;99.90
18406;DHT22;9329;48.720;9.588;2022-12-18T15:06:30;0.50;99.90
18406;DHT22;9329;48.720;9.588;2022-12-18T15:08:58;0.00;99.90
18406;DHT22;9329;48.720;9.588;2022-12-18T15:11:27;0.10;99.90
18406;DHT22;9329;48.720;9.588;2022-12-18T15:13:57;0.00;99.90
18406;DHT22;9329;48.720;9.588;2022-12-18T15:16:24;0.00;99.90
18406;DHT22;9329;48.720;9.588;2022-12-18T15:18:53;-0.10;99.90
18406;DHT22;9329;48.720;9.588;2022-12-18T15:21:20;-0.30;99.90
18406;DHT22;9329;48.720;9.588;2022-12-18T15:23:49;-0.20;99.90
18406;DHT22;9329;48.720;9.588;2022-12-18T15:26:19;-0.40;99.90
18406;DHT22;9329;48.720;9.588;2022-12-18T15:28:48;-0.80;99.90
18406;DHT22;9329;48.720;9.588;2022-12-18T15:31:28;-0.80;99.90
18406;DHT22;9329;48.720;9.588;2022-12-18T15:34:20;-0.50;99.90
18406;DHT22;9329;48.720;9.588;2022-12-18T15:36:49;-0.80;99.90
18406;DHT22;9329;48.720;9.588;2022-12-18T15:39:17;-3.00;99.90
18406;DHT22;9329;48.720;9.588;2022-12-18T15:41:44;-0.90;99.90
18406;DHT22;9329;48.720;9.588;2022-12-18T15:44:27;-1.10;99.90
18406;DHT22;9329;48.720;9.588;2022-12-18T15:46:55;-1.30;99.90
18406;DHT22;9329;48.720;9.588;2022-12-18T15:49:24;-1.20;99.90
18406;DHT22;9329;48.720;9.588;2022-12-18T15:51:52;-1.10;99.90
18406;DHT22;9329;48.720;9.588;2022-12-18T15:54:21;-1.20;99.90
18406;DHT22;9329;48.720;9.588;2022-12-18T15:57:10;-1.40;99.90
18406;DHT22;9329;48.720;9.588;2022-12-18T15:59:52;-1.30;99.90
18406;DHT22;9329;48.720;9.588;2022-12-18T16:02:20;-1.30;99.90
18406;DHT22;9329;48.720;9.588;2022-12-18T16:04:50;-1.40;99.90
18406;DHT22;9329;48.720;9.588;2022-12-18T16:07:17;-1.30;99.90
18406;DHT22;9329;48.720;9.588;2022-12-18T16:09:48;-1.30;99.90
18406;DHT22;9329;48.720;9.588;2022-12-18T16:12:17;-1.30;99.90
18406;DHT22;9329;48.720;9.588;2022-12-18T16:14:47;0.10;99.90
18406;DHT22;9329;48.720;9.588;2022-12-18T16:17:15;-1.30;99.90
18406;DHT22;9329;48.720;9.588;2022-12-18T16:19:43;-1.50;99.90
18406;DHT22;9329;48.720;9.588;2022-12-18T16:22:18;-1.60;99.90
18406;DHT22;9329;48.720;9.588;2022-12-18T16:24:48;-1.70;99.90
18406;DHT22;9329;48.720;9.588;2022-12-18T16:27:16;-1.70;99.90
18406;DHT22;9329;48.720;9.588;2022-12-18T16:29:43;-1.70;99.90
18406;DHT22;9329;48.720;9.588;2022-12-18T16:32:15;-1.70;99.90
18406;DHT22;9329;48.720;9.588;2022-12-18T16:34:45;-1.80;99.90
18406;DHT22;9329;48.720;9.588;2022-12-18T16:37:15;-1.80;99.90
18406;DHT22;9329;48.720;9.588;2022-12-18T16:39:42;-2.00;99.90
18406;DHT22;9329;48.720;9.588;2022-12-18T16:42:13;-1.90;99.90
18406;DHT22;9329;48.720;9.588;2022-12-18T16:44:42;-1.80;99.90
18406;DHT22;9329;48.720;9.588;2022-12-18T16:47:10;-3.30;99.90
18406;DHT22;9329;48.720;9.588;2022-12-18T16:49:37;-1.90;99.90
18406;DHT22;9329;48.720;9.588;2022-12-18T16:52:05;-1.60;99.90
18406;DHT22;9329;48.720;9.588;2022-12-18T16:54:34;-1.30;99.90